createdAt,value
2022-09-25T00:01:10.041Z,15.00
2022-09-25T00:03:36.876Z,15.23
2022-09-25T00:06:10.373Z,14.60
2022-09-25T00:08:37.464Z,14.18
2022-09-25T00:11:09.919Z,13.98
2022-09-25T00:13:36.885Z,14.30
2022-09-25T00:16:04.606Z,13.70
2022-09-25T00:18:50.233Z,13.45
2022-09-25T00:21:17.991Z,14.10
2022-09-25T00:23:45.196Z,13.93
2022-09-25T00:26:14.408Z,13.50
2022-09-25T00:28:42.235Z,12.68
2022-09-25T00:31:09.725Z,13.70
2022-09-25T00:33:36.897Z,12.70
2022-09-25T00:36:06.223Z,12.38
2022-09-25T00:38:33.994Z,12.80
2022-09-25T00:41:01.791Z,12.60
2022-09-25T00:43:38.688Z,13.02
2022-09-25T00:46:31.189Z,12.40
2022-09-25T00:49:12.386Z,12.98
2022-09-25T00:51:43.021Z,12.20
2022-09-25T00:54:31.483Z,11.90
2022-09-25T00:57:00.464Z,12.32
2022-09-25T00:59:33.387Z,11.13
2022-09-25T01:02:00.522Z,11.18
2022-09-25T01:04:29.859Z,10.48
2022-09-25T01:06:57.062Z,11.10
2022-09-25T01:09:23.924Z,10.90
2022-09-25T01:11:50.995Z,10.68
2022-09-25T01:14:17.898Z,11.23
2022-09-25T01:17:00.858Z,10.15
2022-09-25T01:19:47.337Z,11.05
2022-09-25T01:22:21.121Z,10.40
2022-09-25T01:24:55.730Z,9.93
2022-09-25T01:27:50.698Z,10.15
2022-09-25T01:30:19.228Z,10.57
2022-09-25T01:32:56.734Z,10.55
2022-09-25T01:35:37.680Z,10.05
2022-09-25T01:38:16.631Z,10.02
2022-09-25T01:40:48.407Z,8.90
2022-09-25T01:43:23.284Z,9.73
2022-09-25T01:46:01.336Z,9.70
2022-09-25T01:48:30.748Z,9.90
2022-09-25T01:51:04.367Z,9.32
2022-09-25T01:53:41.770Z,9.10
2022-09-25T01:56:17.273Z,9.63
2022-09-25T01:58:53.604Z,9.05
2022-09-25T02:01:24.183Z,9.60
2022-09-25T02:03:57.104Z,9.63
2022-09-25T02:06:24.355Z,8.88
2022-09-25T02:09:04.041Z,8.98
2022-09-25T02:14:18.240Z,8.77
2022-09-25T02:16:48.652Z,8.48
2022-09-25T02:19:35.450Z,8.23
2022-09-25T02:22:13.329Z,8.25
2022-09-25T02:24:47.170Z,8.45
2022-09-25T02:27:14.784Z,8.27
2022-09-25T02:29:42.652Z,8.98
2022-09-25T02:32:12.024Z,7.57
2022-09-25T02:34:39.202Z,7.72
2022-09-25T02:37:13.555Z,8.70
2022-09-25T02:39:40.635Z,8.40
2022-09-25T02:42:45.051Z,7.60
2022-09-25T02:45:11.785Z,7.68
2022-09-25T02:48:02.394Z,7.65
2022-09-25T02:50:41.271Z,7.63
2022-09-25T02:53:18.774Z,7.18
2022-09-25T02:55:52.806Z,7.70
2022-09-25T02:58:27.850Z,7.80
2022-09-25T03:00:56.119Z,7.35
2022-09-25T03:03:24.837Z,7.45
2022-09-25T03:08:40.753Z,7.30
2022-09-25T03:11:12.644Z,7.00
2022-09-25T03:13:40.401Z,6.93
2022-09-25T03:16:20.254Z,7.30
2022-09-25T03:18:47.894Z,6.82
2022-09-25T03:21:14.889Z,6.55
2022-09-25T03:23:41.587Z,6.65
2022-09-25T03:26:08.317Z,6.55
2022-09-25T03:28:35.267Z,6.65
2022-09-25T03:31:04.437Z,6.88
2022-09-25T03:33:35.810Z,6.20
2022-09-25T03:36:07.485Z,6.55
2022-09-25T03:38:34.322Z,5.90
2022-09-25T03:41:02.005Z,6.28
2022-09-25T03:43:33.658Z,6.28
2022-09-25T03:46:00.438Z,5.65
2022-09-25T03:48:27.202Z,6.45
2022-09-25T03:50:56.210Z,5.63
2022-09-25T03:53:25.294Z,6.18
2022-09-25T03:55:52.725Z,6.00
2022-09-25T03:58:20.044Z,5.88
2022-09-25T04:00:47.150Z,5.63
2022-09-25T04:03:15.355Z,5.60
2022-09-25T04:05:43.690Z,5.80
2022-09-25T04:08:10.734Z,5.50
2022-09-25T04:10:38.901Z,5.50
2022-09-25T04:13:06.517Z,5.53
2022-09-25T04:15:34.353Z,5.38
2022-09-25T04:18:05.980Z,5.35
2022-09-25T04:20:33.347Z,5.65
2022-09-25T04:23:00.208Z,5.20
2022-09-25T04:25:27.060Z,5.25
2022-09-25T04:27:55.402Z,5.07
2022-09-25T04:30:23.087Z,5.20
2022-09-25T04:33:09.310Z,5.15
2022-09-25T04:35:36.021Z,4.90
2022-09-25T04:38:03.030Z,4.93
2022-09-25T04:40:30.536Z,5.45
2022-09-25T04:42:58.331Z,5.00
2022-09-25T04:45:26.691Z,4.57
2022-09-25T04:47:58.719Z,5.20
2022-09-25T04:50:26.134Z,4.80
2022-09-25T04:52:53.169Z,4.75
2022-09-25T04:55:22.098Z,4.22
2022-09-25T04:57:59.870Z,4.60
2022-09-25T05:00:31.813Z,5.53
2022-09-25T05:02:59.187Z,4.57
2022-09-25T05:05:30.503Z,4.15
2022-09-25T05:07:59.089Z,4.15
2022-09-25T05:10:30.630Z,4.72
2022-09-25T05:12:58.979Z,4.55
2022-09-25T05:15:28.087Z,4.55
2022-09-25T05:18:06.249Z,4.10
2022-09-25T05:20:34.856Z,4.43
2022-09-25T05:23:04.249Z,4.18
2022-09-25T05:25:31.702Z,4.15
2022-09-25T05:27:59.629Z,4.32
2022-09-25T05:30:28.493Z,4.35
2022-09-25T05:32:58.226Z,24.90
2022-09-25T05:37:52.250Z,50.03
2022-09-25T05:40:21.029Z,53.15
2022-09-25T05:42:48.493Z,43.88
2022-09-25T05:45:15.932Z,43.30
2022-09-25T05:47:43.469Z,41.20
2022-09-25T05:50:13.822Z,34.88
2022-09-25T05:52:40.905Z,31.50
2022-09-25T05:55:09.739Z,28.33
2022-09-25T05:57:37.387Z,26.73
2022-09-25T06:00:08.674Z,24.55
2022-09-25T06:02:35.659Z,24.35
2022-09-25T06:05:02.674Z,23.23
2022-09-25T06:07:29.417Z,77.03
2022-09-25T06:09:56.159Z,98.45
2022-09-25T06:12:24.857Z,89.25
2022-09-25T06:14:52.482Z,82.80
2022-09-25T06:17:19.568Z,75.75
2022-09-25T06:19:46.621Z,67.07
2022-09-25T06:22:13.856Z,62.47
2022-09-25T06:24:40.812Z,56.58
2022-09-25T06:27:08.294Z,52.78
2022-09-25T06:29:35.546Z,50.40
2022-09-25T06:32:03.154Z,49.63
2022-09-25T06:34:29.975Z,47.85
2022-09-25T06:36:56.726Z,46.42
2022-09-25T06:39:23.428Z,44.22
2022-09-25T06:41:53.201Z,43.33
2022-09-25T06:44:20.925Z,44.17
2022-09-25T06:46:52.034Z,41.20
2022-09-25T06:49:18.735Z,36.90
2022-09-25T06:51:45.666Z,37.05
2022-09-25T06:54:12.542Z,33.92
2022-09-25T06:56:39.331Z,31.85
2022-09-25T06:59:06.030Z,30.85
2022-09-25T07:01:33.162Z,29.13
2022-09-25T07:04:01.664Z,27.83
2022-09-25T07:06:31.232Z,27.08
2022-09-25T07:08:58.011Z,27.27
2022-09-25T07:11:28.051Z,25.27
2022-09-25T07:13:57.477Z,25.73
2022-09-25T07:16:28.389Z,24.90
2022-09-25T07:18:57.375Z,24.95
2022-09-25T07:21:25.182Z,23.67
2022-09-25T07:23:52.695Z,22.63
2022-09-25T07:26:23.634Z,22.35
2022-09-25T07:29:02.014Z,22.35
2022-09-25T07:31:31.078Z,21.42
2022-09-25T07:34:02.702Z,21.35
2022-09-25T07:36:29.817Z,21.15
2022-09-25T07:38:56.557Z,20.45
2022-09-25T07:41:23.662Z,19.38
2022-09-25T07:44:11.922Z,19.30
2022-09-25T07:46:44.286Z,18.88
2022-09-25T07:49:11.436Z,18.58
2022-09-25T07:51:38.191Z,17.92
2022-09-25T07:54:05.091Z,17.45
2022-09-25T07:56:34.358Z,17.17
2022-09-25T07:59:01.124Z,17.75
2022-09-25T08:01:27.930Z,16.25
2022-09-25T08:03:55.007Z,15.90
2022-09-25T08:06:21.736Z,16.02
2022-09-25T08:08:48.522Z,15.70
2022-09-25T08:11:17.482Z,15.75
2022-09-25T08:13:44.508Z,15.90
2022-09-25T08:16:16.639Z,15.38
2022-09-25T08:18:46.294Z,15.55
2022-09-25T08:21:15.486Z,14.80
2022-09-25T08:23:47.702Z,14.02
2022-09-25T08:26:15.580Z,14.38
2022-09-25T08:28:42.374Z,13.70
2022-09-25T08:31:09.205Z,14.00
2022-09-25T08:33:36.499Z,14.45
2022-09-25T08:36:05.236Z,13.07
2022-09-25T08:38:35.127Z,12.83
2022-09-25T08:41:22.853Z,13.15
2022-09-25T08:44:28.173Z,13.82
2022-09-25T08:47:38.077Z,12.65
2022-09-25T08:50:22.475Z,13.38
2022-09-25T08:52:52.857Z,11.57
2022-09-25T08:55:23.527Z,12.40
2022-09-25T08:57:55.422Z,12.48
2022-09-25T09:00:23.647Z,12.55
2022-09-25T09:02:54.977Z,11.73
2022-09-25T09:05:30.041Z,12.18
2022-09-25T09:08:03.523Z,12.25
2022-09-25T09:10:56.704Z,11.70
2022-09-25T09:13:38.587Z,11.85
2022-09-25T09:16:34.439Z,11.35
2022-09-25T09:19:04.191Z,11.25
2022-09-25T09:24:18.295Z,10.82
2022-09-25T09:27:04.230Z,11.73
2022-09-25T09:29:49.396Z,10.80
2022-09-25T09:32:27.303Z,10.40
2022-09-25T09:35:07.459Z,10.88
2022-09-25T09:37:55.288Z,10.77
2022-09-25T09:40:54.284Z,10.93
2022-09-25T09:43:40.375Z,10.27
2022-09-25T09:46:17.634Z,10.55
2022-09-25T09:49:17.212Z,10.75
2022-09-25T09:51:57.851Z,9.20
2022-09-25T09:54:45.783Z,9.98
2022-09-25T09:57:27.808Z,10.20
2022-09-25T10:00:04.384Z,10.60
2022-09-25T10:02:46.203Z,10.57
2022-09-25T10:05:20.871Z,10.30
2022-09-25T10:07:48.563Z,10.55
2022-09-25T10:10:17.016Z,9.48
2022-09-25T10:12:50.182Z,9.02
2022-09-25T10:15:30.260Z,9.43
2022-09-25T10:17:59.991Z,9.35
2022-09-25T10:22:58.924Z,9.43
2022-09-25T10:25:39.896Z,9.15
2022-09-25T10:28:23.026Z,9.65
2022-09-25T10:30:52.228Z,9.90
2022-09-25T10:33:22.270Z,8.45
2022-09-25T10:35:51.154Z,9.20
2022-09-25T10:38:37.097Z,8.55
2022-09-25T10:41:13.373Z,8.65
2022-09-25T10:44:01.129Z,8.38
2022-09-25T10:46:54.103Z,8.80
2022-09-25T10:49:42.149Z,8.68
2022-09-25T10:52:11.655Z,8.45
2022-09-25T10:54:44.565Z,9.23
2022-09-25T10:57:34.320Z,8.57
2022-09-25T11:00:04.171Z,7.80
2022-09-25T11:02:42.771Z,8.13
2022-09-25T11:05:18.655Z,7.63
2022-09-25T11:07:55.187Z,7.93
2022-09-25T11:10:43.752Z,7.72
2022-09-25T11:13:27.992Z,7.93
2022-09-25T11:16:00.490Z,8.02
2022-09-25T11:18:51.300Z,7.75
2022-09-25T11:21:26.791Z,7.82
2022-09-25T11:24:17.714Z,7.85
2022-09-25T11:26:51.161Z,7.97
2022-09-25T11:29:22.619Z,7.57
2022-09-25T11:31:58.019Z,7.50
2022-09-25T11:34:36.591Z,8.02
2022-09-25T11:37:18.191Z,7.28
2022-09-25T11:40:37.478Z,7.40
2022-09-25T11:43:11.345Z,8.07
2022-09-25T11:45:47.475Z,6.88
2022-09-25T11:48:37.387Z,7.57
2022-09-25T11:51:36.673Z,7.57
2022-09-25T11:54:35.285Z,6.90
2022-09-25T11:57:13.817Z,7.15
2022-09-25T12:00:20.129Z,7.43
2022-09-25T12:03:10.884Z,7.05
2022-09-25T12:05:52.712Z,6.93
2022-09-25T12:08:50.341Z,7.07
2022-09-25T12:11:43.193Z,7.10
2022-09-25T12:14:13.986Z,6.70
2022-09-25T12:16:55.262Z,7.15
2022-09-25T12:19:52.447Z,6.63
2022-09-25T12:22:30.554Z,6.93
2022-09-25T12:25:10.297Z,6.20
2022-09-25T12:27:48.525Z,6.45
2022-09-25T12:30:26.755Z,6.35
2022-09-25T12:33:41.960Z,6.32
2022-09-25T12:36:16.445Z,6.85
2022-09-25T12:39:20.108Z,6.78
2022-09-25T12:41:53.085Z,6.50
2022-09-25T12:44:29.427Z,6.10
2022-09-25T12:47:05.330Z,5.88
2022-09-25T12:50:04.481Z,6.40
2022-09-25T12:52:39.874Z,6.65
2022-09-25T12:55:15.395Z,6.13
2022-09-25T12:57:48.218Z,6.00
2022-09-25T13:00:20.211Z,6.82
2022-09-25T13:02:58.537Z,5.95
2022-09-25T13:05:35.234Z,6.45
2022-09-25T13:08:14.676Z,6.30
2022-09-25T13:11:11.972Z,6.20
2022-09-25T13:13:48.863Z,5.97
2022-09-25T13:16:16.641Z,5.85
2022-09-25T13:19:13.766Z,5.35
2022-09-25T13:21:43.039Z,5.80
2022-09-25T13:24:13.781Z,5.45
2022-09-25T13:26:53.499Z,5.70
2022-09-25T13:31:49.531Z,5.32
2022-09-25T13:34:20.210Z,5.35
2022-09-25T13:36:55.983Z,5.10
2022-09-25T13:39:59.071Z,5.50
2022-09-25T13:42:29.928Z,5.57
2022-09-25T13:45:06.355Z,5.45
2022-09-25T13:47:38.106Z,5.18
2022-09-25T13:50:10.754Z,5.13
2022-09-25T13:52:40.212Z,5.45
2022-09-25T13:55:23.392Z,5.15
2022-09-25T13:57:59.288Z,5.20
2022-09-25T14:00:36.044Z,5.40
2022-09-25T14:03:03.455Z,4.90
2022-09-25T14:05:36.057Z,5.38
2022-09-25T14:08:12.543Z,5.03
2022-09-25T14:10:45.052Z,4.85
2022-09-25T14:13:13.532Z,4.90
2022-09-25T14:15:41.483Z,4.40
2022-09-25T14:18:25.059Z,4.55
2022-09-25T14:20:57.508Z,5.53
2022-09-25T14:23:27.301Z,4.93
2022-09-25T14:26:07.131Z,4.78
2022-09-25T14:28:43.693Z,4.80
2022-09-25T14:31:37.277Z,4.60
2022-09-25T14:34:39.408Z,5.28
2022-09-25T14:37:35.282Z,4.40
2022-09-25T14:40:22.258Z,4.70
2022-09-25T14:43:24.772Z,4.25
2022-09-25T14:46:03.185Z,4.68
2022-09-25T14:51:04.512Z,4.45
2022-09-25T14:53:42.507Z,4.00
2022-09-25T14:56:12.418Z,4.65
2022-09-25T14:58:44.224Z,4.30
2022-09-25T15:01:19.074Z,4.13
2022-09-25T15:03:48.763Z,4.07
2022-09-25T15:08:53.022Z,4.00
2022-09-25T15:11:20.816Z,4.25
2022-09-25T15:13:47.740Z,3.97
2022-09-25T15:16:44.504Z,4.13
2022-09-25T15:19:27.506Z,4.05
2022-09-25T15:21:55.366Z,4.40
2022-09-25T15:24:27.820Z,4.30
2022-09-25T15:27:06.798Z,3.88
2022-09-25T15:29:38.124Z,3.85
2022-09-25T15:32:05.762Z,3.95
2022-09-25T15:34:33.585Z,3.58
2022-09-25T15:37:29.171Z,3.92
2022-09-25T15:39:56.528Z,3.85
2022-09-25T15:42:23.359Z,3.85
2022-09-25T15:44:50.171Z,4.10
2022-09-25T15:47:35.026Z,3.67
2022-09-25T15:50:06.242Z,3.47
2022-09-25T15:52:33.997Z,3.40
2022-09-25T15:55:02.303Z,3.67
2022-09-25T15:57:30.713Z,3.50
2022-09-25T16:00:16.992Z,3.47
2022-09-25T16:05:46.939Z,3.20
2022-09-25T16:11:21.746Z,3.55
2022-09-25T16:13:51.773Z,3.45
2022-09-25T16:16:29.359Z,3.10
2022-09-25T16:19:15.871Z,3.40
2022-09-25T16:21:42.670Z,3.67
2022-09-25T16:24:18.594Z,3.10
2022-09-25T16:26:45.966Z,3.38
2022-09-25T16:29:12.716Z,3.55
2022-09-25T16:31:41.124Z,3.25
2022-09-25T16:34:35.456Z,3.50
2022-09-25T16:37:04.135Z,3.47
2022-09-25T16:39:38.307Z,2.95
2022-09-25T16:42:27.418Z,3.17
2022-09-25T16:45:08.800Z,2.97
2022-09-25T16:47:35.593Z,2.78
2022-09-25T16:50:02.413Z,3.13
2022-09-25T16:52:31.090Z,3.00
2022-09-25T16:54:59.150Z,2.80
2022-09-25T17:00:00.142Z,3.20
2022-09-25T17:02:33.605Z,3.28
2022-09-25T17:05:02.391Z,3.22
2022-09-25T17:07:29.555Z,2.92
2022-09-25T17:09:56.364Z,3.15
2022-09-25T17:12:24.632Z,3.13
2022-09-25T17:14:51.583Z,2.65
2022-09-25T17:17:20.501Z,2.60
2022-09-25T17:19:47.688Z,2.92
2022-09-25T17:22:14.518Z,3.10
2022-09-25T17:24:41.429Z,2.97
2022-09-25T17:27:16.044Z,4.00
2022-09-25T17:29:43.293Z,6.20
2022-09-25T17:32:19.251Z,11.32
2022-09-25T17:34:46.510Z,23.88
2022-09-25T17:37:13.815Z,28.70
2022-09-25T17:39:40.501Z,33.42
2022-09-25T17:42:07.289Z,35.90
2022-09-25T17:44:34.044Z,34.50
2022-09-25T17:47:01.900Z,35.40
2022-09-25T17:49:29.183Z,36.83
2022-09-25T17:51:56.118Z,32.97
2022-09-25T17:54:23.285Z,34.63
2022-09-25T17:56:50.374Z,32.28
2022-09-25T17:59:17.283Z,32.28
2022-09-25T18:01:44.115Z,31.13
2022-09-25T18:04:24.671Z,31.48
2022-09-25T18:06:52.034Z,29.98
2022-09-25T18:09:18.981Z,29.05
2022-09-25T18:11:45.688Z,29.23
2022-09-25T18:14:13.924Z,29.02
2022-09-25T18:16:42.266Z,27.95
2022-09-25T18:19:36.652Z,26.17
2022-09-25T18:22:20.612Z,25.63
2022-09-25T18:24:52.679Z,23.42
2022-09-25T18:29:47.482Z,19.42
2022-09-25T18:32:14.833Z,19.83
2022-09-25T18:34:42.296Z,17.05
2022-09-25T18:37:09.575Z,16.65
2022-09-25T18:39:36.373Z,18.35
2022-09-25T18:42:03.899Z,18.92
2022-09-25T18:44:31.120Z,19.05
2022-09-25T18:46:57.930Z,19.00
2022-09-25T18:49:26.328Z,18.88
2022-09-25T18:51:53.090Z,18.75
2022-09-25T18:54:20.676Z,19.00
2022-09-25T18:56:47.566Z,18.58
2022-09-25T18:59:14.834Z,17.55
2022-09-25T19:01:41.897Z,18.23
2022-09-25T19:04:12.018Z,17.08
2022-09-25T19:06:39.072Z,17.95
2022-09-25T19:09:06.012Z,18.08
2022-09-25T19:11:32.837Z,17.50
2022-09-25T19:14:04.735Z,17.65
2022-09-25T19:16:38.009Z,17.23
2022-09-25T19:19:05.254Z,16.10
2022-09-25T19:21:32.896Z,16.67
2022-09-25T19:23:59.617Z,16.02
2022-09-25T19:26:26.297Z,16.08
2022-09-25T19:28:53.737Z,15.45
2022-09-25T19:31:23.562Z,15.63
2022-09-25T19:33:50.806Z,15.25
2022-09-25T19:36:20.691Z,40.28
2022-09-25T19:38:47.939Z,79.78
2022-09-25T19:41:28.053Z,71.82
2022-09-25T19:43:57.843Z,59.85
2022-09-25T19:46:25.892Z,52.50
2022-09-25T19:48:52.877Z,45.67
2022-09-25T19:51:22.118Z,42.45
2022-09-25T19:53:49.631Z,38.45
2022-09-25T19:56:17.109Z,35.97
2022-09-25T19:58:43.915Z,36.33
2022-09-25T20:01:16.280Z,32.05
2022-09-25T20:03:43.150Z,31.38
2022-09-25T20:06:10.858Z,28.45
2022-09-25T20:08:38.521Z,28.48
2022-09-25T20:11:16.857Z,28.33
2022-09-25T20:13:44.245Z,26.90
2022-09-25T20:16:13.135Z,25.90
2022-09-25T20:18:40.057Z,27.05
2022-09-25T20:21:08.205Z,25.83
2022-09-25T20:23:35.865Z,100.82
2022-09-25T20:26:11.132Z,99.13
2022-09-25T20:28:39.061Z,81.90
2022-09-25T20:31:11.796Z,65.65
2022-09-25T20:33:38.576Z,57.53
2022-09-25T20:36:07.059Z,52.00
2022-09-25T20:38:33.966Z,47.28
2022-09-25T20:41:01.819Z,43.90
2022-09-25T20:43:28.926Z,43.08
2022-09-25T20:46:03.926Z,41.92
2022-09-25T20:48:32.129Z,41.08
2022-09-25T20:50:58.874Z,39.92
2022-09-25T20:53:26.767Z,39.38
2022-09-25T20:55:53.837Z,35.92
2022-09-25T20:58:20.578Z,34.97
2022-09-25T21:00:48.464Z,33.13
2022-09-25T21:03:15.252Z,33.28
2022-09-25T21:05:46.537Z,32.50
2022-09-25T21:08:13.388Z,31.65
2022-09-25T21:10:40.421Z,31.35
2022-09-25T21:13:07.221Z,31.13
2022-09-25T21:15:33.987Z,28.67
2022-09-25T21:18:00.906Z,39.47
2022-09-25T21:20:28.397Z,136.55
2022-09-25T21:22:55.207Z,103.25
2022-09-25T21:25:22.199Z,89.07
2022-09-25T21:27:48.966Z,75.97
2022-09-25T21:30:15.973Z,66.03
2022-09-25T21:32:42.749Z,57.03
2022-09-25T21:35:09.967Z,53.03
2022-09-25T21:37:36.737Z,51.40
2022-09-25T21:40:05.669Z,47.88
2022-09-25T21:42:32.638Z,44.38
2022-09-25T21:45:00.977Z,44.38
2022-09-25T21:47:28.207Z,42.75
2022-09-25T21:49:56.263Z,43.22
2022-09-25T21:52:25.277Z,41.25
2022-09-25T21:54:52.693Z,41.65
2022-09-25T21:57:19.508Z,39.67
2022-09-25T21:59:46.518Z,37.20
2022-09-25T22:02:13.274Z,37.90
2022-09-25T22:04:40.001Z,36.72
2022-09-25T22:07:06.803Z,34.95
2022-09-25T22:09:33.636Z,34.70
2022-09-25T22:12:00.572Z,33.97
2022-09-25T22:14:27.356Z,33.13
2022-09-25T22:16:54.713Z,33.20
2022-09-25T22:19:24.307Z,32.38
2022-09-25T22:21:52.724Z,31.73
2022-09-25T22:24:19.541Z,30.92
2022-09-25T22:26:47.923Z,30.40
2022-09-25T22:29:15.490Z,30.17
2022-09-25T22:31:43.354Z,29.10
2022-09-25T22:34:19.403Z,29.10
2022-09-25T22:36:46.613Z,27.67
2022-09-25T22:39:15.516Z,28.05
2022-09-25T22:44:10.107Z,25.80
2022-09-25T22:46:37.058Z,27.20
2022-09-25T22:49:04.045Z,26.88
2022-09-25T22:51:30.778Z,25.75
2022-09-25T22:53:57.533Z,25.17
2022-09-25T22:56:27.058Z,25.77
2022-09-25T23:01:47.001Z,22.83
2022-09-25T23:04:16.621Z,23.65
2022-09-25T23:06:43.869Z,23.02
2022-09-25T23:09:16.632Z,22.35
2022-09-25T23:11:44.051Z,22.02
2022-09-25T23:14:16.991Z,22.63
2022-09-25T23:16:45.197Z,22.38
2022-09-25T23:19:12.926Z,20.67
2022-09-25T23:21:39.829Z,20.77
2022-09-25T23:24:12.100Z,21.67
2022-09-25T23:26:38.909Z,19.85
2022-09-25T23:29:05.685Z,19.95
2022-09-25T23:31:33.662Z,21.38
2022-09-25T23:34:01.424Z,19.90
2022-09-25T23:36:29.210Z,19.90
2022-09-25T23:38:59.898Z,18.83
2022-09-25T23:41:35.818Z,19.33
2022-09-25T23:44:04.452Z,19.05
2022-09-25T23:46:34.184Z,17.98
2022-09-25T23:49:01.109Z,18.95
2022-09-25T23:51:28.269Z,17.60
2022-09-25T23:53:57.132Z,18.08
2022-09-25T23:56:26.855Z,17.83
